Time;durP1;ratioP1;P1;durP2;ratioP2;P2;SDS_P1;SDS_P2;PMS_P1;PMS_P2;Temp;Humidity;BMP_temperature;BMP_pressure;BME280_temperature;BME280_humidity;BME280_pressure;Samples;Min_cycle;Max_cycle;Signal;HPM_P1;HPM_P2
2021/07/26 00:02:03;;;;;;;15.88;14.35;;;;;;;24.06;56.70;100831.97;6137722;28;20235;-52
2021/07/26 00:05:24;;;;;;;15.15;13.85;;;;;;;23.96;57.36;100841.50;6136669;28;20553;-52
2021/07/26 00:08:45;;;;;;;16.48;14.88;;;;;;;23.96;57.08;100842.38;6140176;28;20239;-51
2021/07/26 00:12:08;;;;;;;16.13;14.75;;;;;;;24.02;57.07;100835.78;6139724;28;20238;-50
2021/07/26 00:15:30;;;;;;;15.07;13.57;;;;;;;23.85;57.60;100836.88;6139800;28;20219;-51
2021/07/26 00:18:51;;;;;;;15.52;14.05;;;;;;;23.90;57.17;100831.25;6137886;28;20616;-47
2021/07/26 00:22:11;;;;;;;13.60;12.50;;;;;;;23.98;57.01;100835.13;6137147;28;20802;-52
2021/07/26 00:25:32;;;;;;;14.80;13.48;;;;;;;23.89;57.19;100848.19;6143637;28;20261;-50
2021/07/26 00:28:54;;;;;;;14.52;13.35;;;;;;;23.78;57.73;100844.38;6135545;28;21048;-53
2021/07/26 00:32:15;;;;;;;14.32;12.93;;;;;;;23.73;57.83;100835.84;6142690;28;20235;-54
2021/07/26 00:35:36;;;;;;;14.10;12.75;;;;;;;23.83;57.45;100845.91;6140131;28;20223;-47
2021/07/26 00:38:57;;;;;;;14.60;13.20;;;;;;;23.64;58.04;100846.19;6134008;28;20616;-48
2021/07/26 00:42:17;;;;;;;15.57;14.10;;;;;;;23.48;58.82;100851.63;6137724;28;20231;-49
2021/07/26 00:45:40;;;;;;;14.20;13.00;;;;;;;23.50;58.66;100841.75;6132146;28;20230;-50
2021/07/26 00:49:04;;;;;;;14.32;13.13;;;;;;;23.38;58.68;100848.69;6137500;28;20287;-51
2021/07/26 00:52:26;;;;;;;15.23;13.90;;;;;;;23.10;59.65;100841.56;6138163;28;20231;-50
2021/07/26 00:55:47;;;;;;;13.88;12.77;;;;;;;23.44;58.69;100844.78;6137489;28;20235;-49
2021/07/26 00:59:10;;;;;;;14.02;12.77;;;;;;;23.31;59.02;100847.38;6135279;28;20223;-50
2021/07/26 01:02:33;;;;;;;14.18;12.85;;;;;;;23.42;58.74;100841.38;6134277;28;20227;-50
2021/07/26 01:05:54;;;;;;;14.50;13.20;;;;;;;23.41;58.94;100826.38;6135515;28;20247;-52
2021/07/26 01:09:16;;;;;;;14.77;13.43;;;;;;;23.39;58.77;100832.63;6134975;28;20631;-53
2021/07/26 01:12:37;;;;;;;16.45;13.90;;;;;;;23.51;58.42;100838.13;6136169;28;20505;-50
2021/07/26 01:15:58;;;;;;;14.88;13.60;;;;;;;23.41;58.86;100850.31;6118586;28;20255;-52
2021/07/26 01:19:21;;;;;;;14.15;12.70;;;;;;;23.41;58.91;100852.97;6139300;28;20782;-49
2021/07/26 01:22:43;;;;;;;14.40;13.20;;;;;;;23.16;59.66;100851.81;6137961;28;20231;-48
2021/07/26 01:26:06;;;;;;;14.10;13.10;;;;;;;22.91;60.46;100858.56;6143500;28;20235;-52
2021/07/26 01:29:27;;;;;;;14.85;13.68;;;;;;;23.17;59.51;100853.53;6143943;28;20243;-50
2021/07/26 01:32:47;;;;;;;14.75;13.43;;;;;;;23.14;59.75;100861.69;6142357;28;20501;-50
2021/07/26 01:36:09;;;;;;;15.82;14.43;;;;;;;23.04;59.97;100864.03;6145189;28;20687;-52
2021/07/26 01:39:31;;;;;;;16.25;14.95;;;;;;;22.86;60.41;100865.97;6142806;28;20231;-48
2021/07/26 01:43:00;;;;;;;14.98;13.73;;;;;;;22.89;60.57;100868.44;6143240;28;20235;-50
2021/07/26 01:46:28;;;;;;;15.00;13.68;;;;;;;22.88;60.73;100868.56;6142389;28;20234;-51
2021/07/26 01:49:55;;;;;;;15.73;14.25;;;;;;;23.05;60.28;100863.13;6143447;28;20234;-49
2021/07/26 01:53:16;;;;;;;15.32;13.82;;;;;;;23.07;59.91;100869.19;6140847;28;20240;-51
2021/07/26 01:56:39;;;;;;;14.93;13.68;;;;;;;22.97;60.29;100879.47;6140757;28;20231;-52
2021/07/26 02:00:00;;;;;;;13.82;12.77;;;;;;;22.91;60.45;100863.03;6141628;28;20227;-52
2021/07/26 02:03:21;;;;;;;14.90;13.70;;;;;;;22.93;60.46;100875.25;6137018;28;20227;-49
2021/07/26 02:06:42;;;;;;;15.20;13.90;;;;;;;22.86;60.53;100873.94;6139622;28;20243;-52
2021/07/26 02:10:04;;;;;;;14.50;13.30;;;;;;;22.76;60.87;100870.09;6140795;28;20235;-48
2021/07/26 02:13:26;;;;;;;16.52;15.10;;;;;;;22.67;61.27;100870.69;6157486;28;20235;-48
2021/07/26 02:16:51;;;;;;;18.63;17.17;;;;;;;22.08;62.99;100874.00;6143823;28;20613;-50
2021/07/26 02:20:13;;;;;;;17.00;15.68;;;;;;;21.92;64.43;100873.97;6140640;28;20239;-51
2021/07/26 02:23:34;;;;;;;16.60;15.20;;;;;;;22.50;62.18;100875.16;6140153;28;20231;-49
2021/07/26 02:26:55;;;;;;;17.58;16.17;;;;;;;22.45;62.16;100877.25;6140676;28;20251;-49
2021/07/26 02:30:17;;;;;;;16.45;15.10;;;;;;;22.14;63.21;100868.34;6141670;28;20321;-46
2021/07/26 02:33:39;;;;;;;16.33;14.73;;;;;;;22.06;63.43;100870.56;6142451;28;20576;-54
2021/07/26 02:37:00;;;;;;;16.92;15.30;;;;;;;22.36;62.27;100868.00;6138546;28;20281;-50
2021/07/26 02:40:21;;;;;;;17.98;16.38;;;;;;;22.59;61.52;100874.63;6153098;28;20240;-48
2021/07/26 02:43:43;;;;;;;16.90;15.40;;;;;;;22.65;61.48;100877.88;6142293;28;20512;-46
2021/07/26 02:47:05;;;;;;;17.10;15.40;;;;;;;22.64;61.26;100870.84;6142149;28;20239;-47
2021/07/26 02:50:26;;;;;;;16.10;14.80;;;;;;;22.44;61.96;100872.88;6129737;28;20231;-52
2021/07/26 02:53:47;;;;;;;19.92;18.10;;;;;;;22.54;61.68;100868.72;6143094;28;20227;-50
2021/07/26 02:57:08;;;;;;;20.30;18.63;;;;;;;22.48;61.94;100870.88;6141836;28;20232;-51
2021/07/26 03:00:29;;;;;;;17.90;16.40;;;;;;;21.99;63.54;100869.22;6140086;28;20231;-53
2021/07/26 03:03:51;;;;;;;20.67;19.00;;;;;;;22.05;63.42;100862.72;6142047;28;20236;-46
2021/07/26 03:07:12;;;;;;;20.33;18.55;;;;;;;22.30;62.61;100864.84;6142077;28;20547;-50
2021/07/26 03:10:33;;;;;;;17.70;16.25;;;;;;;22.48;61.54;100866.44;6145522;28;20231;-49
2021/07/26 03:13:55;;;;;;;18.48;16.80;;;;;;;22.38;62.27;100870.56;6141423;28;20377;-50
2021/07/26 03:17:16;;;;;;;17.25;15.85;;;;;;;22.49;62.12;100883.19;6143706;28;20844;-48
2021/07/26 03:20:38;;;;;;;20.13;17.88;;;;;;;21.91;63.83;100882.03;6140404;28;20231;-51
2021/07/26 03:23:59;;;;;;;17.08;15.52;;;;;;;21.61;65.15;100880.97;6137435;28;20251;-48
2021/07/26 03:27:20;;;;;;;20.38;18.55;;;;;;;21.76;64.76;100887.25;6140002;28;20231;-50
2021/07/26 03:30:41;;;;;;;20.58;18.88;;;;;;;22.03;63.92;100890.16;6139274;28;20247;-53
2021/07/26 03:34:02;;;;;;;18.38;16.85;;;;;;;22.27;63.11;100880.94;6140641;28;20227;-49
2021/07/26 03:37:24;;;;;;;17.90;16.33;;;;;;;22.41;62.71;100883.63;6138853;28;20231;-49
2021/07/26 03:40:48;;;;;;;21.17;19.48;;;;;;;22.38;62.53;100881.19;6139658;28;20318;-53
2021/07/26 03:44:09;;;;;;;24.45;22.17;;;;;;;22.65;61.79;100880.53;6137631;28;20238;-48
2021/07/26 03:47:30;;;;;;;23.05;21.13;;;;;;;22.54;62.32;100879.34;6139220;28;20239;-52
2021/07/26 03:50:50;;;;;;;22.73;20.77;;;;;;;22.70;61.92;100881.97;6139146;28;20235;-51
2021/07/26 03:54:13;;;;;;;18.75;17.23;;;;;;;22.76;61.59;100884.25;6136052;28;20235;-50
2021/07/26 03:57:33;;;;;;;20.08;18.27;;;;;;;22.48;62.79;100882.34;6142255;28;20562;-52
2021/07/26 04:00:54;;;;;;;19.25;17.40;;;;;;;22.13;64.44;100882.53;6137387;28;20232;-53
2021/07/26 04:04:16;;;;;;;19.88;18.08;;;;;;;22.17;64.56;100884.06;6139721;28;20307;-50
2021/07/26 04:07:39;;;;;;;19.67;18.10;;;;;;;21.94;65.49;100887.16;6134926;28;20227;-50
2021/07/26 04:11:05;;;;;;;19.77;18.05;;;;;;;22.10;65.15;100892.47;6139372;28;20280;-51
2021/07/26 04:14:29;;;;;;;19.45;17.75;;;;;;;21.93;65.92;100891.63;6137605;28;20608;-51
2021/07/26 04:17:50;;;;;;;19.60;17.95;;;;;;;21.43;67.29;100889.88;6140515;28;20787;-46
2021/07/26 04:21:11;;;;;;;19.92;18.10;;;;;;;21.72;66.70;100893.66;6134221;28;20235;-52
2021/07/26 04:24:32;;;;;;;20.48;18.63;;;;;;;22.00;65.75;100892.13;6140667;28;20231;-52
2021/07/26 04:27:54;;;;;;;20.55;18.77;;;;;;;21.75;66.72;100890.84;6141441;28;20231;-49
2021/07/26 04:31:15;;;;;;;21.60;19.70;;;;;;;22.21;65.03;100890.06;6134436;28;20223;-53
2021/07/26 04:34:36;;;;;;;21.50;19.67;;;;;;;21.94;66.27;100892.47;6138736;28;20223;-49
2021/07/26 04:37:56;;;;;;;21.65;19.85;;;;;;;22.36;64.79;100888.38;6140642;28;20306;-50
2021/07/26 04:41:17;;;;;;;22.73;20.65;;;;;;;21.97;66.07;100887.84;6140781;28;20231;-50
2021/07/26 04:44:40;;;;;;;20.55;18.80;;;;;;;22.25;65.10;100896.09;6138149;28;20604;-47
2021/07/26 04:48:01;;;;;;;19.67;17.98;;;;;;;22.52;64.73;100894.50;6140321;28;20227;-50
2021/07/26 04:51:22;;;;;;;20.23;18.52;;;;;;;22.62;64.09;100889.50;6137893;28;20238;-52
2021/07/26 04:54:43;;;;;;;21.02;18.98;;;;;;;22.34;65.08;100890.25;6143460;28;20234;-48
2021/07/26 04:58:04;;;;;;;20.90;18.88;;;;;;;22.76;63.69;100883.38;6144327;28;20712;-53
2021/07/26 05:01:26;;;;;;;19.10;17.60;;;;;;;23.35;62.05;100881.63;6142543;28;20235;-51
2021/07/26 05:04:47;;;;;;;22.55;20.75;;;;;;;23.33;61.39;100880.84;6145367;28;20258;-50
2021/07/26 05:08:08;;;;;;;21.80;19.88;;;;;;;22.87;63.23;100883.59;6147588;28;20242;-48
2021/07/26 05:11:29;;;;;;;20.75;18.92;;;;;;;22.73;63.79;100880.94;6145283;28;20927;-52
2021/07/26 05:14:52;;;;;;;23.95;21.77;;;;;;;23.19;62.10;100880.84;6146241;28;20566;-53
2021/07/26 05:18:15;;;;;;;21.35;19.42;;;;;;;22.89;63.57;100883.53;6142452;28;20234;-48
2021/07/26 05:21:36;;;;;;;21.48;19.63;;;;;;;22.46;64.57;100886.03;6148479;28;20317;-52
2021/07/26 05:24:56;;;;;;;24.38;22.25;;;;;;;22.66;64.37;100888.38;6147316;28;20258;-52
2021/07/26 05:28:17;;;;;;;23.10;20.88;;;;;;;22.68;64.33;100888.28;6143938;28;20471;-48
2021/07/26 05:31:38;;;;;;;20.48;18.77;;;;;;;23.10;63.08;100890.22;6146317;28;20230;-51
2021/07/26 05:35:00;;;;;;;22.85;20.50;;;;;;;23.22;62.43;100888.63;6142373;28;20235;-49
2021/07/26 05:38:21;;;;;;;21.23;19.40;;;;;;;23.28;62.12;100896.22;6141763;28;20613;-51
2021/07/26 05:41:42;;;;;;;21.90;19.80;;;;;;;23.25;62.74;100896.41;6147541;28;20231;-60
2021/07/26 05:45:03;;;;;;;20.70;18.88;;;;;;;23.42;62.14;100891.84;6139033;28;20235;-59
2021/07/26 05:48:24;;;;;;;20.80;18.98;;;;;;;23.98;60.08;100884.78;6137144;28;20235;-60
2021/07/26 05:51:47;;;;;;;22.80;20.50;;;;;;;23.73;60.61;100904.09;6142272;28;20246;-59
2021/07/26 05:55:09;;;;;;;21.90;19.77;;;;;;;23.67;60.94;100905.34;6151538;28;20349;-60
2021/07/26 05:58:31;;;;;;;20.58;18.75;;;;;;;23.64;60.83;100899.38;6142544;28;20235;-59
2021/07/26 06:01:53;;;;;;;22.58;20.02;;;;;;;23.66;60.52;100897.47;6142956;28;20227;-59
2021/07/26 06:05:14;;;;;;;21.67;18.08;;;;;;;23.60;60.39;100898.69;6140654;28;20231;-60
2021/07/26 06:08:36;;;;;;;19.80;17.70;;;;;;;23.49;60.84;100899.34;6136632;28;20239;-60
2021/07/26 06:11:57;;;;;;;19.40;15.25;;;;;;;23.48;59.90;100894.16;6136233;28;20251;-60
2021/07/26 06:15:18;;;;;;;21.30;17.67;;;;;;;23.87;58.43;100889.97;6140973;28;20309;-59
2021/07/26 06:18:40;;;;;;;19.00;16.55;;;;;;;24.13;57.69;100890.94;6132213;28;20235;-61
2021/07/26 06:22:00;;;;;;;15.93;14.30;;;;;;;24.13;56.87;100883.81;6141244;28;20531;-60
2021/07/26 06:25:23;;;;;;;16.80;13.82;;;;;;;24.82;54.91;100870.44;6134858;28;20231;-60
2021/07/26 06:28:44;;;;;;;19.63;17.92;;;;;;;25.24;53.94;100868.47;6140813;28;20555;-60
2021/07/26 06:32:05;;;;;;;16.85;15.25;;;;;;;25.70;52.54;100885.66;6135700;28;20580;-59
2021/07/26 06:35:26;;;;;;;16.23;13.88;;;;;;;25.85;51.52;100875.72;6135722;28;20232;-61
2021/07/26 06:38:47;;;;;;;14.15;12.85;;;;;;;25.89;51.56;100880.69;6138321;28;20243;-59
2021/07/26 06:42:09;;;;;;;12.45;11.25;;;;;;;26.41;49.90;100875.19;6137405;28;20302;-61
2021/07/26 06:45:30;;;;;;;14.45;12.95;;;;;;;26.41;49.66;100870.69;6135382;28;20239;-60
2021/07/26 06:48:51;;;;;;;18.65;12.93;;;;;;;27.05;48.01;100885.50;6136813;28;20620;-61
2021/07/26 06:52:12;;;;;;;13.88;12.50;;;;;;;27.27;47.55;100901.56;6135890;28;20251;-60
2021/07/26 06:55:36;;;;;;;12.38;11.23;;;;;;;25.79;49.70;100893.00;6133862;28;20235;-60
2021/07/26 06:58:58;;;;;;;11.18;10.00;;;;;;;25.35;49.96;100897.84;6135002;28;20227;-59
2021/07/26 07:02:19;;;;;;;12.35;11.07;;;;;;;24.84;50.73;100902.28;6131758;28;20255;-63
2021/07/26 07:05:40;;;;;;;9.43;8.57;;;;;;;25.67;49.21;100913.41;6123667;28;20321;-62
2021/07/26 07:09:01;;;;;;;12.55;10.15;;;;;;;26.22;48.01;100913.06;6136220;28;20243;-59
2021/07/26 07:12:22;;;;;;;11.18;10.02;;;;;;;25.25;50.29;100911.94;6140241;28;20242;-60
2021/07/26 07:15:45;;;;;;;10.93;9.80;;;;;;;25.46;48.91;100914.94;6141349;28;20239;-59
2021/07/26 07:19:06;;;;;;;8.63;7.82;;;;;;;26.40;46.16;100901.03;6137493;28;20231;-60
2021/07/26 07:22:26;;;;;;;10.13;8.20;;;;;;;25.80;47.36;100902.69;6136012;28;20231;-59
2021/07/26 07:25:47;;;;;;;8.20;7.45;;;;;;;25.55;48.33;100908.91;6141095;28;20227;-60
2021/07/26 07:29:08;;;;;;;8.57;7.45;;;;;;;26.11;46.49;100905.84;6135783;28;20673;-60
2021/07/26 07:32:32;;;;;;;8.40;7.70;;;;;;;25.79;46.61;100909.00;6133306;28;20231;-60
2021/07/26 07:35:53;;;;;;;12.25;7.28;;;;;;;26.62;45.20;100910.13;6152392;28;20314;-59
2021/07/26 07:39:14;;;;;;;7.85;6.78;;;;;;;26.81;44.69;100907.78;6135745;28;20227;-60
2021/07/26 07:42:36;;;;;;;6.82;6.13;;;;;;;26.64;45.16;100905.53;6134056;28;20242;-60
2021/07/26 07:45:58;;;;;;;7.13;6.43;;;;;;;26.88;45.28;100917.00;6135812;28;20258;-52
2021/07/26 07:49:20;;;;;;;18.23;8.85;;;;;;;25.78;47.08;100925.97;6133986;28;20250;-56
2021/07/26 07:52:41;;;;;;;8.38;7.43;;;;;;;25.34;48.29;100928.16;6137723;28;21103;-52
2021/07/26 07:56:03;;;;;;;8.85;6.95;;;;;;;25.23;48.00;100936.03;6135700;28;20750;-48
2021/07/26 07:59:24;;;;;;;6.60;6.07;;;;;;;24.55;49.36;100929.88;6128004;28;20234;-50
2021/07/26 08:02:45;;;;;;;7.93;6.43;;;;;;;25.39;47.60;100932.31;6136521;28;20664;-48
2021/07/26 08:06:07;;;;;;;7.65;6.78;;;;;;;25.49;47.59;100931.56;6134365;28;20667;-53
2021/07/26 08:09:28;;;;;;;7.32;6.55;;;;;;;25.58;47.74;100935.38;6138401;28;20242;-52
2021/07/26 08:12:49;;;;;;;9.43;5.75;;;;;;;25.13;48.49;100935.78;6138655;28;20550;-49
2021/07/26 08:16:09;;;;;;;7.07;5.70;;;;;;;24.78;49.54;100935.50;6138410;28;20321;-51
2021/07/26 08:19:30;;;;;;;6.65;6.15;;;;;;;25.18;48.91;100935.44;6138289;28;20656;-54
2021/07/26 08:22:53;;;;;;;6.38;5.75;;;;;;;25.44;48.47;100930.19;6135879;28;20231;-59
2021/07/26 08:26:14;;;;;;;10.25;6.35;;;;;;;25.32;48.68;100935.41;6133154;28;20258;-59
2021/07/26 08:29:35;;;;;;;9.63;7.00;;;;;;;25.14;49.45;100947.28;6119104;28;20625;-59
2021/07/26 08:32:57;;;;;;;9.82;7.88;;;;;;;25.24;49.85;100942.19;6131864;28;20613;-62
2021/07/26 08:36:18;;;;;;;12.55;6.72;;;;;;;25.01;50.77;100954.38;6137671;28;20234;-63
2021/07/26 08:39:40;;;;;;;7.65;7.00;;;;;;;25.43;50.61;100947.97;6138637;28;20227;-63
2021/07/26 08:43:04;;;;;;;8.98;5.97;;;;;;;24.95;53.00;100947.66;6135397;28;20243;-63
2021/07/26 08:46:26;;;;;;;6.30;5.70;;;;;;;24.63;54.98;100960.47;6134044;28;20236;-61
2021/07/26 08:49:47;;;;;;;6.53;5.93;;;;;;;24.41;57.19;100953.00;6137015;28;20246;-62
2021/07/26 08:53:09;;;;;;;9.98;8.95;;;;;;;24.25;58.37;100958.47;6133356;28;20231;-62
2021/07/26 08:56:32;;;;;;;10.23;8.23;;;;;;;24.95;55.95;100950.31;6148518;28;20235;-61
2021/07/26 08:59:54;;;;;;;8.75;7.95;;;;;;;24.64;57.17;100954.19;6138352;28;20584;-60
2021/07/26 09:03:15;;;;;;;10.27;8.57;;;;;;;25.08;56.07;100947.69;6136075;28;20250;-60
2021/07/26 09:06:37;;;;;;;8.43;7.70;;;;;;;25.50;54.42;100948.41;6129047;28;20222;-62
2021/07/26 09:09:57;;;;;;;11.30;10.30;;;;;;;25.02;55.74;100964.09;6137398;28;20508;-62
2021/07/26 09:13:35;;;;;;;9.93;9.02;;;;;;;25.36;54.79;100962.69;6128784;28;20231;-60
2021/07/26 09:16:56;;;;;;;10.13;9.15;;;;;;;25.21;55.19;100969.88;6138428;28;20230;-61
2021/07/26 09:20:19;;;;;;;10.88;10.00;;;;;;;25.00;55.55;100974.00;6136746;28;20234;-62
2021/07/26 09:24:05;;;;;;;16.60;11.18;;;;;;;24.38;57.72;100983.34;6134601;28;20500;-54
2021/07/26 09:27:26;;;;;;;13.43;11.63;;;;;;;24.04;60.95;100993.47;6132862;28;20619;-53
2021/07/26 09:30:51;;;;;;;12.20;11.10;;;;;;;23.84;62.76;100993.88;6132038;28;20246;-52
2021/07/26 09:34:21;;;;;;;13.90;12.77;;;;;;;23.92;63.08;100995.13;6137256;28;20231;-54
2021/07/26 09:37:42;;;;;;;12.90;11.77;;;;;;;23.86;62.55;100994.63;6138500;28;20238;-54
2021/07/26 09:41:05;;;;;;;11.95;10.52;;;;;;;23.81;61.99;101002.00;6142196;28;20227;-55
2021/07/26 09:44:28;;;;;;;11.00;10.07;;;;;;;24.15;61.44;101014.06;6140737;28;20584;-53
2021/07/26 09:48:06;;;;;;;11.55;10.65;;;;;;;24.00;62.01;101018.56;6139815;28;20239;-52
2021/07/26 09:51:27;;;;;;;10.35;9.40;;;;;;;23.82;62.33;101017.88;6131989;28;20238;-53
2021/07/26 09:54:50;;;;;;;11.23;10.13;;;;;;;24.55;60.01;101007.09;6133338;28;20261;-57
2021/07/26 09:58:12;;;;;;;10.10;9.30;;;;;;;24.10;60.38;101011.72;6141781;28;20231;-55
2021/07/26 10:01:34;;;;;;;10.35;9.48;;;;;;;24.26;60.18;101018.72;6144180;28;20222;-54
2021/07/26 10:04:57;;;;;;;10.25;9.40;;;;;;;24.59;59.09;101023.72;6139463;28;20598;-55
2021/07/26 10:08:18;;;;;;;9.30;8.40;;;;;;;24.82;58.58;101024.88;6140823;28;20223;-54
2021/07/26 10:11:39;;;;;;;9.88;8.45;;;;;;;25.16;57.44;101035.97;6143846;28;20266;-53
2021/07/26 10:15:00;;;;;;;9.00;8.07;;;;;;;24.38;59.24;101044.56;6129589;28;20322;-55
2021/07/26 10:18:21;;;;;;;8.60;7.90;;;;;;;24.46;59.34;101041.41;6135374;28;20254;-60
2021/07/26 10:21:47;;;;;;;7.63;6.57;;;;;;;24.14;59.94;101047.81;6133703;28;20231;-60
2021/07/26 10:25:11;;;;;;;12.38;7.50;;;;;;;24.37;59.30;101046.38;6135912;28;20500;-61
2021/07/26 10:28:35;;;;;;;9.77;6.82;;;;;;;24.80;57.88;101044.59;6134442;28;20231;-61
2021/07/26 10:31:56;;;;;;;7.07;6.20;;;;;;;24.18;60.30;101044.00;6130288;28;20238;-60
2021/07/26 10:35:39;;;;;;;6.15;5.65;;;;;;;24.63;57.68;101035.88;6138204;28;20231;-62
2021/07/26 10:39:01;;;;;;;8.15;7.28;;;;;;;24.83;56.71;101026.59;6133795;28;20345;-63
2021/07/26 10:42:33;;;;;;;6.30;5.10;;;;;;;25.03;55.56;101027.94;6131977;28;20307;-61
2021/07/26 10:46:00;;;;;;;6.95;5.47;;;;;;;25.04;54.35;101020.81;6130155;28;20243;-60
2021/07/26 10:49:21;;;;;;;6.18;4.93;;;;;;;25.51;53.91;101024.75;6141185;28;20247;-61
2021/07/26 10:52:46;;;;;;;5.88;5.47;;;;;;;25.28;54.50;101028.97;6142178;28;20234;-62
2021/07/26 10:56:09;;;;;;;6.10;5.50;;;;;;;25.11;55.19;101016.78;6143520;28;20604;-60
2021/07/26 10:59:31;;;;;;;5.55;5.13;;;;;;;25.45;54.19;101014.50;6141711;28;20235;-61
2021/07/26 11:02:52;;;;;;;12.85;11.68;;;;;;;26.10;52.27;101006.41;6138321;28;20231;-60
2021/07/26 11:07:00;;;;;;;5.82;5.22;;;;;;;26.79;51.63;101003.19;6140245;28;20262;-61
2021/07/26 11:10:42;;;;;;;8.30;6.30;;;;;;;26.76;51.23;101006.13;6138972;28;20228;-60
2021/07/26 11:14:12;;;;;;;6.22;5.72;;;;;;;27.36;49.40;101003.44;6140551;28;20243;-59
2021/07/26 11:18:11;;;;;;;5.10;4.70;;;;;;;27.97;47.80;101001.31;6140335;28;20234;-61
2021/07/26 11:21:35;;;;;;;5.57;5.07;;;;;;;28.54;46.85;101003.94;6136582;28;20295;-60
2021/07/26 11:25:05;;;;;;;6.50;6.00;;;;;;;27.72;48.17;100993.50;6131199;28;20327;-61
2021/07/26 11:28:35;;;;;;;6.32;5.68;;;;;;;27.83;48.80;100990.84;6148675;28;20234;-60
2021/07/26 11:31:59;;;;;;;6.70;5.40;;;;;;;28.59;47.02;100980.31;6131856;28;20313;-61
2021/07/26 11:35:20;;;;;;;6.22;5.63;;;;;;;29.30;45.04;100971.72;6138271;28;20322;-51
2021/07/26 11:39:00;;;;;;;5.40;4.53;;;;;;;29.50;43.16;100961.94;6143757;28;20238;-55
2021/07/26 11:42:24;;;;;;;5.53;4.25;;;;;;;28.73;43.47;100955.91;6110921;28;20258;-55
2021/07/26 11:45:47;;;;;;;5.65;3.97;;;;;;;28.50;43.08;100949.75;6134493;28;20569;-50
2021/07/26 11:49:18;;;;;;;3.63;3.35;;;;;;;28.41;41.83;100945.16;6140170;28;20239;-52
2021/07/26 11:52:51;;;;;;;5.47;4.68;;;;;;;28.24;42.44;100949.22;6130559;28;20231;-50
2021/07/26 11:56:18;;;;;;;3.45;3.15;;;;;;;28.18;40.96;100955.06;6136915;28;20227;-52
2021/07/26 11:59:40;;;;;;;4.28;3.38;;;;;;;29.47;39.14;100944.28;6128414;28;20329;-56
2021/07/26 12:03:02;;;;;;;3.67;3.38;;;;;;;28.79;39.12;100942.00;6135100;28;20719;-54
2021/07/26 12:06:25;;;;;;;3.70;3.40;;;;;;;29.36;38.26;100947.06;6131758;28;20231;-55
2021/07/26 12:09:49;;;;;;;3.38;2.78;;;;;;;28.63;39.09;100944.25;6126080;28;20235;-51
2021/07/26 12:13:12;;;;;;;3.63;3.33;;;;;;;29.98;38.22;100938.00;6134045;28;20374;-53
2021/07/26 12:16:33;;;;;;;4.72;4.13;;;;;;;31.19;36.54;100927.88;6128743;28;20223;-53
2021/07/26 12:20:00;;;;;;;4.32;3.08;;;;;;;31.59;35.97;100930.34;6135015;28;20231;-55
2021/07/26 12:23:24;;;;;;;4.03;3.55;;;;;;;31.26;35.68;100920.09;6129880;28;20243;-52
2021/07/26 12:27:00;;;;;;;3.42;3.05;;;;;;;31.90;34.59;100915.75;6138363;28;20235;-54
2021/07/26 12:30:21;;;;;;;3.58;3.28;;;;;;;32.13;34.69;100916.19;6141269;28;20235;-52
2021/07/26 12:33:43;;;;;;;6.28;5.63;;;;;;;31.92;34.03;100914.59;6133812;28;20235;-54
2021/07/26 12:37:08;;;;;;;5.30;4.60;;;;;;;32.44;33.29;100903.19;6143922;28;20235;-53
2021/07/26 12:40:32;;;;;;;4.13;3.72;;;;;;;32.11;32.93;100915.50;6135409;28;20542;-51
2021/07/26 12:44:09;;;;;;;4.43;4.10;;;;;;;32.46;32.44;100894.97;6133877;28;20242;-52
2021/07/26 12:47:35;;;;;;;4.32;3.78;;;;;;;32.64;32.38;100900.38;6132773;28;20235;-51
2021/07/26 12:50:57;;;;;;;3.97;3.58;;;;;;;32.75;33.26;100898.25;6141067;28;20251;-49
2021/07/26 12:54:19;;;;;;;4.22;3.75;;;;;;;31.98;32.72;100891.59;6134002;28;20243;-54
2021/07/26 12:57:41;;;;;;;4.18;3.50;;;;;;;34.76;29.27;100887.91;6133576;28;20652;-57
2021/07/26 13:01:03;;;;;;;6.22;4.28;;;;;;;35.91;25.93;100884.88;6131743;28;20246;-55
2021/07/26 13:04:24;;;;;;;4.45;4.05;;;;;;;35.71;26.00;100889.88;6130028;28;20314;-53
2021/07/26 13:07:45;;;;;;;3.47;2.88;;;;;;;38.51;24.04;100884.03;6142838;28;20254;-54
2021/07/26 13:11:06;;;;;;;4.15;3.85;;;;;;;34.88;27.02;100886.56;6140400;28;20243;-52
2021/07/26 13:14:28;;;;;;;4.25;3.95;;;;;;;35.82;25.89;100886.78;6139982;28;20604;-57
2021/07/26 13:17:49;;;;;;;5.65;5.15;;;;;;;38.33;23.54;100870.06;6143541;28;20595;-52
2021/07/26 13:21:10;;;;;;;12.02;4.47;;;;;;;35.86;25.48;100882.69;6139981;28;20333;-53
2021/07/26 13:24:31;;;;;;;4.70;4.15;;;;;;;38.86;22.49;100870.53;6146747;28;20235;-54
2021/07/26 13:27:53;;;;;;;4.57;4.18;;;;;;;37.51;24.64;100860.38;6144469;28;20548;-50
2021/07/26 13:31:15;;;;;;;5.82;4.15;;;;;;;34.86;28.74;100858.84;6139691;28;20239;-55
2021/07/26 13:34:36;;;;;;;3.95;3.63;;;;;;;34.22;30.15;100850.53;6143876;28;20669;-60
2021/07/26 13:37:57;;;;;;;4.78;4.20;;;;;;;33.99;29.10;100847.63;6138003;28;20224;-49
2021/07/26 13:41:18;;;;;;;4.97;4.57;;;;;;;35.52;26.97;100847.78;6139873;28;20301;-53
2021/07/26 13:44:39;;;;;;;4.45;4.05;;;;;;;39.41;23.03;100835.22;6141503;28;20227;-55
2021/07/26 13:48:02;;;;;;;4.38;3.58;;;;;;;36.37;25.83;100841.53;6145017;28;20235;-55
2021/07/26 13:51:24;;;;;;;5.22;4.63;;;;;;;36.10;26.55;100841.06;6150452;28;20329;-54
2021/07/26 13:54:45;;;;;;;5.55;4.50;;;;;;;32.41;32.01;100844.22;6141745;28;20231;-51
2021/07/26 13:58:06;;;;;;;4.57;4.10;;;;;;;32.14;33.53;100839.75;6124795;28;20227;-54
2021/07/26 14:01:26;;;;;;;5.72;4.43;;;;;;;35.13;28.51;100844.06;6139899;28;20387;-55
2021/07/26 14:04:49;;;;;;;4.68;4.28;;;;;;;36.83;26.74;100841.44;6126344;28;20239;-54
2021/07/26 14:08:10;;;;;;;4.68;4.28;;;;;;;34.36;29.45;100849.03;6140422;28;20494;-55
2021/07/26 14:11:31;;;;;;;5.93;3.85;;;;;;;33.73;31.05;100840.47;6126236;28;20239;-50
2021/07/26 14:14:54;;;;;;;5.07;4.57;;;;;;;34.94;29.52;100845.28;6121091;28;20242;-54
2021/07/26 14:18:16;;;;;;;6.60;4.45;;;;;;;36.23;28.08;100845.88;6123400;28;20227;-51
2021/07/26 14:21:38;;;;;;;5.07;4.05;;;;;;;35.78;28.39;100848.34;6132712;28;20502;-54
2021/07/26 14:24:59;;;;;;;5.68;4.10;;;;;;;34.78;29.09;100831.78;6140979;28;20235;-49
2021/07/26 14:28:20;;;;;;;3.95;3.65;;;;;;;33.91;30.97;100838.50;6142051;28;20235;-56
2021/07/26 14:31:41;;;;;;;13.18;4.90;;;;;;;34.38;30.49;100833.50;6140967;28;20239;-55
2021/07/26 14:35:02;;;;;;;4.22;3.83;;;;;;;34.48;30.24;100840.41;6136766;28;20239;-54
2021/07/26 14:38:25;;;;;;;3.97;3.67;;;;;;;34.07;31.05;100836.84;6152097;28;20238;-53
2021/07/26 14:41:46;;;;;;;4.50;4.10;;;;;;;34.26;31.05;100836.53;6139636;28;20562;-53
2021/07/26 14:45:08;;;;;;;5.07;4.60;;;;;;;34.37;30.28;100826.41;6135524;28;20226;-55
2021/07/26 14:48:29;;;;;;;4.45;4.15;;;;;;;32.98;31.60;100835.72;6137706;28;20235;-51
2021/07/26 14:51:50;;;;;;;5.90;4.30;;;;;;;31.21;34.02;100837.13;6137884;28;20330;-51
2021/07/26 14:55:13;;;;;;;4.32;3.92;;;;;;;29.96;36.32;100842.50;6135024;28;20735;-52
2021/07/26 14:58:35;;;;;;;5.03;3.58;;;;;;;30.59;35.31;100829.53;6141271;28;20231;-51
2021/07/26 15:01:56;;;;;;;4.22;3.92;;;;;;;31.25;35.05;100827.78;6143403;28;20235;-51
2021/07/26 15:05:17;;;;;;;5.75;4.22;;;;;;;30.61;35.40;100834.72;6142132;28;20234;-54
2021/07/26 15:08:38;;;;;;;5.75;5.28;;;;;;;30.87;35.91;100836.81;6139203;28;20231;-51
2021/07/26 15:12:01;;;;;;;4.53;4.07;;;;;;;30.72;36.34;100834.56;6135304;28;20239;-52
2021/07/26 15:15:22;;;;;;;4.25;3.95;;;;;;;30.52;36.46;100828.41;6139633;28;20251;-55
2021/07/26 15:18:43;;;;;;;4.55;3.63;;;;;;;29.62;37.75;100830.28;6139112;28;20243;-54
2021/07/26 15:22:04;;;;;;;7.32;6.72;;;;;;;29.95;37.52;100824.69;6145563;28;20227;-51
2021/07/26 15:25:26;;;;;;;6.20;5.70;;;;;;;30.27;37.33;100819.06;6141580;28;20542;-51
2021/07/26 15:28:48;;;;;;;5.05;4.57;;;;;;;30.06;37.70;100829.09;6144487;28;20235;-50
2021/07/26 15:32:09;;;;;;;5.47;4.97;;;;;;;30.44;36.94;100812.16;6139711;28;20550;-51